createdAt,value
2018-10-18T00:00:37.299Z,11.14
2018-10-18T00:01:45.361Z,11.14
2018-10-18T00:02:53.434Z,11.14
2018-10-18T00:04:01.498Z,11.10
2018-10-18T00:05:09.555Z,11.10
2018-10-18T00:06:17.800Z,11.10
2018-10-18T00:07:25.670Z,11.10
2018-10-18T00:08:33.747Z,11.14
2018-10-18T00:09:41.809Z,11.10
2018-10-18T00:10:49.885Z,11.07
2018-10-18T00:11:57.947Z,11.09
2018-10-18T00:13:05.987Z,11.07
2018-10-18T00:14:14.148Z,11.07
2018-10-18T00:15:22.142Z,11.06
2018-10-18T00:16:30.188Z,11.06
2018-10-18T00:17:38.238Z,11.04
2018-10-18T00:18:46.325Z,11.06
2018-10-18T00:19:54.405Z,11.03
2018-10-18T00:21:02.429Z,11.06
2018-10-18T00:22:10.496Z,11.00
2018-10-18T00:23:18.580Z,11.07
2018-10-18T00:24:26.642Z,11.07
2018-10-18T00:25:34.710Z,10.97
2018-10-18T00:26:42.748Z,11.03
2018-10-18T00:27:50.822Z,10.99
2018-10-18T00:28:58.842Z,11.06
2018-10-18T00:30:06.940Z,11.02
2018-10-18T00:31:15.006Z,11.09
2018-10-18T00:32:23.052Z,11.07
2018-10-18T00:33:31.133Z,11.11
2018-10-18T00:34:39.174Z,11.11
2018-10-18T00:35:47.253Z,11.18
2018-10-18T00:36:55.320Z,11.10
2018-10-18T00:38:03.405Z,11.14
2018-10-18T00:39:11.440Z,11.10
2018-10-18T00:40:19.491Z,11.11
2018-10-18T00:41:27.564Z,11.11
2018-10-18T00:42:35.619Z,11.11
2018-10-18T00:43:43.698Z,11.18
2018-10-18T00:44:51.751Z,11.10
2018-10-18T00:45:59.809Z,11.10
2018-10-18T00:47:07.867Z,11.10
2018-10-18T00:48:16.052Z,11.07
2018-10-18T00:49:24.011Z,11.14
2018-10-18T00:50:32.088Z,11.09
2018-10-18T00:51:40.127Z,11.10
2018-10-18T00:52:48.177Z,11.10
2018-10-18T00:53:56.307Z,11.07
2018-10-18T00:55:04.347Z,11.03
2018-10-18T00:56:12.451Z,11.07
2018-10-18T00:57:20.452Z,11.15
2018-10-18T00:58:28.486Z,11.18
2018-10-18T00:59:36.568Z,11.15
2018-10-18T01:00:44.640Z,11.15
2018-10-18T01:01:52.760Z,11.21
2018-10-18T01:03:00.784Z,11.18
2018-10-18T01:04:08.797Z,11.21
2018-10-18T01:05:16.892Z,11.19
2018-10-18T01:06:24.943Z,11.17
2018-10-18T01:07:33.009Z,11.19
2018-10-18T01:08:41.067Z,11.22
2018-10-18T01:09:49.133Z,11.21
2018-10-18T01:10:57.190Z,11.22
2018-10-18T01:12:05.303Z,11.24
2018-10-18T01:13:13.316Z,11.19
2018-10-18T01:14:21.384Z,11.27
2018-10-18T01:15:29.468Z,11.24
2018-10-18T01:16:37.520Z,11.21
2018-10-18T01:17:45.584Z,11.22
2018-10-18T01:18:53.637Z,11.22
2018-10-18T01:20:01.766Z,11.19
2018-10-18T01:21:09.773Z,11.24
2018-10-18T01:22:17.817Z,11.18
2018-10-18T01:23:25.898Z,11.22
2018-10-18T01:24:33.955Z,11.21
2018-10-18T01:25:42.015Z,11.18
2018-10-18T01:26:50.075Z,11.19
2018-10-18T01:27:58.115Z,11.19
2018-10-18T01:29:06.205Z,11.11
2018-10-18T01:30:14.369Z,11.17
2018-10-18T01:31:22.319Z,11.10
2018-10-18T01:32:30.400Z,11.07
2018-10-18T01:33:38.451Z,11.09
2018-10-18T01:34:46.516Z,11.11
2018-10-18T01:35:54.637Z,11.07
2018-10-18T01:37:02.629Z,11.10
2018-10-18T01:38:10.794Z,11.11
2018-10-18T01:39:18.769Z,11.06
2018-10-18T01:40:26.825Z,11.10
2018-10-18T01:41:34.881Z,11.10
2018-10-18T01:42:42.940Z,11.10
2018-10-18T01:43:51.045Z,11.07
2018-10-18T01:44:59.072Z,11.06
2018-10-18T01:46:07.138Z,11.06
2018-10-18T01:47:15.199Z,11.10
2018-10-18T01:48:23.280Z,11.06
2018-10-18T01:49:31.334Z,11.07
2018-10-18T01:50:39.387Z,11.04
2018-10-18T01:51:47.485Z,11.02
2018-10-18T01:52:55.521Z,10.99
2018-10-18T01:54:03.636Z,10.99
2018-10-18T01:55:11.644Z,10.96
2018-10-18T01:56:19.706Z,10.92
2018-10-18T01:57:27.782Z,10.91
2018-10-18T01:58:35.828Z,10.99
2018-10-18T01:59:43.905Z,10.91
2018-10-18T02:00:51.950Z,10.89
2018-10-18T02:02:00.096Z,10.92
2018-10-18T02:03:08.111Z,10.91
2018-10-18T02:04:16.149Z,10.84
2018-10-18T02:05:24.206Z,10.94
2018-10-18T02:06:32.267Z,10.81
2018-10-18T02:07:40.322Z,10.86
2018-10-18T02:08:48.377Z,10.81
2018-10-18T02:09:56.461Z,10.85
2018-10-18T02:11:04.531Z,10.81
2018-10-18T02:12:12.643Z,10.78
2018-10-18T02:13:20.641Z,10.78
2018-10-18T02:14:28.696Z,10.78
2018-10-18T02:15:36.773Z,10.85
2018-10-18T02:16:44.828Z,10.84
2018-10-18T02:17:52.968Z,10.76
2018-10-18T02:19:01.035Z,10.73
2018-10-18T02:20:09.005Z,10.73
2018-10-18T02:21:17.098Z,10.76
2018-10-18T02:22:25.146Z,10.73
2018-10-18T02:23:33.214Z,10.68
2018-10-18T02:24:41.279Z,10.76
2018-10-18T02:25:49.343Z,10.67
2018-10-18T02:26:57.400Z,10.68
2018-10-18T02:28:05.452Z,10.68
2018-10-18T02:29:13.510Z,10.68
2018-10-18T02:30:21.701Z,10.73
2018-10-18T02:31:29.665Z,10.67
2018-10-18T02:32:37.710Z,10.63
2018-10-18T02:33:45.782Z,10.66
2018-10-18T02:34:53.839Z,10.63
2018-10-18T02:36:02.034Z,10.66
2018-10-18T02:37:09.963Z,10.70
2018-10-18T02:38:18.017Z,10.61
2018-10-18T02:39:26.074Z,10.61
2018-10-18T02:40:34.147Z,10.53
2018-10-18T02:41:42.211Z,10.63
2018-10-18T02:42:50.270Z,10.67
2018-10-18T02:43:58.351Z,10.68
2018-10-18T02:45:06.390Z,10.53
2018-10-18T02:46:14.466Z,10.56
2018-10-18T02:47:22.522Z,10.53
2018-10-18T02:48:30.601Z,10.47
2018-10-18T02:49:38.632Z,10.53
2018-10-18T02:50:46.710Z,10.47
2018-10-18T02:51:54.790Z,10.44
2018-10-18T02:53:02.870Z,10.45
2018-10-18T02:54:10.934Z,10.34
2018-10-18T02:55:18.970Z,10.36
2018-10-18T02:56:27.033Z,10.38
2018-10-18T02:57:35.096Z,10.40
2018-10-18T02:58:43.147Z,10.34
2018-10-18T02:59:51.228Z,10.41
2018-10-18T03:00:59.281Z,10.42
2018-10-18T03:02:07.337Z,10.44
2018-10-18T03:03:15.416Z,10.40
2018-10-18T03:04:23.462Z,10.45
2018-10-18T03:05:31.532Z,10.34
2018-10-18T03:06:39.601Z,10.38
2018-10-18T03:07:47.666Z,10.38
2018-10-18T03:08:55.728Z,10.33
2018-10-18T03:10:03.783Z,10.34
2018-10-18T03:11:11.852Z,10.42
2018-10-18T03:12:20.092Z,10.41
2018-10-18T03:13:27.983Z,10.42
2018-10-18T03:14:36.048Z,10.52
2018-10-18T03:15:44.113Z,10.42
2018-10-18T03:16:52.182Z,10.40
2018-10-18T03:18:00.233Z,10.36
2018-10-18T03:19:08.262Z,10.41
2018-10-18T03:20:16.335Z,10.40
2018-10-18T03:21:24.398Z,10.42
2018-10-18T03:22:32.473Z,10.52
2018-10-18T03:23:40.526Z,10.44
2018-10-18T03:24:48.591Z,10.34
2018-10-18T03:25:56.653Z,10.38
2018-10-18T03:27:04.719Z,10.47
2018-10-18T03:28:12.771Z,10.51
2018-10-18T03:29:20.856Z,10.56
2018-10-18T03:30:28.899Z,10.51
2018-10-18T03:31:36.955Z,10.48
2018-10-18T03:32:45.065Z,10.53
2018-10-18T03:33:53.087Z,10.52
2018-10-18T03:35:01.157Z,10.52
2018-10-18T03:36:09.311Z,10.59
2018-10-18T03:37:17.276Z,10.55
2018-10-18T03:38:25.317Z,10.59
2018-10-18T03:39:37.648Z,10.61
2018-10-18T03:40:41.456Z,10.64
2018-10-18T03:41:49.516Z,10.63
2018-10-18T03:42:57.577Z,10.68
2018-10-18T03:44:05.632Z,10.71
2018-10-18T03:45:13.705Z,10.74
2018-10-18T03:46:22.013Z,10.82
2018-10-18T03:47:29.832Z,10.71
2018-10-18T03:48:37.894Z,10.82
2018-10-18T03:49:45.957Z,10.76
2018-10-18T03:50:54.020Z,10.79
2018-10-18T03:52:02.209Z,10.84
2018-10-18T03:53:10.158Z,10.86
2018-10-18T03:54:18.349Z,10.88
2018-10-18T03:55:26.488Z,10.91
2018-10-18T03:56:34.358Z,11.11
2018-10-18T03:57:43.157Z,11.09
2018-10-18T03:58:50.529Z,11.11
2018-10-18T03:59:58.543Z,11.10
2018-10-18T04:01:06.585Z,11.10
2018-10-18T04:02:14.655Z,11.09
2018-10-18T04:03:22.715Z,11.11
2018-10-18T04:04:30.813Z,11.09
2018-10-18T04:05:38.817Z,11.10
2018-10-18T04:06:46.932Z,11.10
2018-10-18T04:07:54.970Z,11.06
2018-10-18T04:09:03.033Z,11.10
2018-10-18T04:10:11.087Z,11.07
2018-10-18T04:11:19.239Z,11.14
2018-10-18T04:12:27.267Z,11.04
2018-10-18T04:13:35.280Z,11.10
2018-10-18T04:14:43.540Z,10.97
2018-10-18T04:15:51.401Z,11.02
2018-10-18T04:16:59.472Z,11.03
2018-10-18T04:18:07.655Z,10.96
2018-10-18T04:19:15.599Z,10.97
2018-10-18T04:20:23.631Z,11.00
2018-10-18T04:21:31.716Z,10.91
2018-10-18T04:22:39.803Z,10.96
2018-10-18T04:23:47.862Z,10.89
2018-10-18T04:24:55.912Z,10.84
2018-10-18T04:26:03.965Z,10.89
2018-10-18T04:27:12.038Z,10.88
2018-10-18T04:28:20.086Z,10.82
2018-10-18T04:29:28.190Z,10.91
2018-10-18T04:30:36.212Z,10.85
2018-10-18T04:31:44.312Z,10.92
2018-10-18T04:32:52.327Z,10.94
2018-10-18T04:34:00.424Z,10.85
2018-10-18T04:35:08.451Z,10.92
2018-10-18T04:36:16.642Z,10.96
2018-10-18T04:37:24.845Z,10.97
2018-10-18T04:38:32.670Z,10.94
2018-10-18T04:39:40.718Z,10.97
2018-10-18T04:40:48.775Z,10.94
2018-10-18T04:41:56.942Z,10.91
2018-10-18T04:43:05.166Z,11.00
2018-10-18T04:44:12.967Z,10.99
2018-10-18T04:45:21.029Z,10.99
2018-10-18T04:46:29.065Z,10.99
2018-10-18T04:47:37.215Z,10.94
2018-10-18T04:48:45.295Z,10.92
2018-10-18T04:49:53.279Z,10.91
2018-10-18T04:51:01.361Z,10.78
2018-10-18T04:52:09.383Z,10.89
2018-10-18T04:53:17.462Z,10.71
2018-10-18T04:54:25.531Z,10.79
2018-10-18T04:55:33.590Z,10.73
2018-10-18T04:56:41.697Z,10.79
2018-10-18T04:57:49.743Z,10.76
2018-10-18T04:58:57.782Z,10.81
2018-10-18T05:00:05.819Z,10.71
2018-10-18T05:01:14.068Z,10.63
2018-10-18T05:02:21.944Z,10.78
2018-10-18T05:03:30.027Z,10.70
2018-10-18T05:04:38.084Z,10.63
2018-10-18T05:05:46.140Z,10.66
2018-10-18T05:06:54.259Z,10.64
2018-10-18T05:08:02.269Z,10.56
2018-10-18T05:09:10.337Z,10.61
2018-10-18T05:10:18.658Z,10.64
2018-10-18T05:11:26.558Z,10.61
2018-10-18T05:12:34.551Z,10.64
2018-10-18T05:13:42.623Z,10.66
2018-10-18T05:14:50.956Z,10.61
2018-10-18T05:15:58.728Z,10.61
2018-10-18T05:17:06.749Z,10.51
2018-10-18T05:18:14.845Z,10.48
2018-10-18T05:19:22.910Z,10.51
2018-10-18T05:20:30.990Z,10.55
2018-10-18T05:21:39.042Z,10.44
2018-10-18T05:22:47.084Z,10.41
2018-10-18T05:23:55.145Z,10.41
2018-10-18T05:25:03.351Z,10.38
2018-10-18T05:26:11.282Z,10.41
2018-10-18T05:27:19.334Z,10.32
2018-10-18T05:28:27.398Z,10.29
2018-10-18T05:29:35.925Z,10.27
2018-10-18T05:30:43.527Z,10.29
2018-10-18T05:31:51.697Z,10.30
2018-10-18T05:32:59.640Z,10.22
2018-10-18T05:34:07.713Z,10.26
2018-10-18T05:35:15.772Z,10.25
2018-10-18T05:36:23.840Z,10.25
2018-10-18T05:37:31.946Z,10.12
2018-10-18T05:38:39.939Z,10.26
2018-10-18T05:39:48.045Z,10.09
2018-10-18T05:40:56.083Z,10.33
2018-10-18T05:42:04.140Z,10.34
2018-10-18T05:43:12.376Z,10.32
2018-10-18T05:44:20.293Z,10.30
2018-10-18T05:45:28.349Z,10.27
2018-10-18T05:46:36.457Z,10.32
2018-10-18T05:47:44.483Z,10.29
2018-10-18T05:48:52.555Z,10.18
2018-10-18T05:50:00.592Z,10.32
2018-10-18T05:51:08.632Z,10.26
2018-10-18T05:52:16.736Z,10.30
2018-10-18T05:53:24.830Z,10.33
2018-10-18T05:54:32.844Z,10.33
2018-10-18T05:55:40.900Z,10.29
2018-10-18T05:56:48.968Z,10.30
2018-10-18T05:57:57.033Z,10.33
2018-10-18T05:59:05.092Z,10.30
2018-10-18T06:00:13.194Z,10.32
2018-10-18T06:01:21.214Z,10.32
2018-10-18T06:02:29.355Z,10.42
2018-10-18T06:03:37.355Z,10.36
2018-10-18T06:04:45.401Z,10.38
2018-10-18T06:05:53.480Z,10.45
2018-10-18T06:07:01.534Z,10.42
2018-10-18T06:08:09.600Z,10.45
2018-10-18T06:09:17.656Z,10.45
2018-10-18T06:10:25.866Z,10.52
2018-10-18T06:11:33.788Z,10.48
2018-10-18T06:12:41.852Z,10.44
2018-10-18T06:13:49.995Z,10.55
2018-10-18T06:14:57.984Z,10.51
2018-10-18T06:16:06.024Z,10.60
2018-10-18T06:17:14.100Z,10.53
2018-10-18T06:18:22.151Z,10.53
2018-10-18T06:19:30.228Z,10.52
2018-10-18T06:20:38.287Z,10.47
2018-10-18T06:21:46.341Z,10.51
2018-10-18T06:22:54.538Z,10.55
2018-10-18T06:24:02.487Z,10.61
2018-10-18T06:25:10.594Z,10.66
2018-10-18T06:26:18.590Z,10.63
2018-10-18T06:27:26.685Z,10.64
2018-10-18T06:28:34.727Z,10.67
2018-10-18T06:29:42.804Z,10.71
2018-10-18T06:30:50.860Z,10.66
2018-10-18T06:31:58.936Z,10.63
2018-10-18T06:33:07.038Z,10.70
2018-10-18T06:34:15.037Z,10.85
2018-10-18T06:35:23.114Z,10.88
2018-10-18T06:36:31.188Z,10.85
2018-10-18T06:37:39.259Z,10.91
2018-10-18T06:38:47.300Z,11.03
2018-10-18T06:39:55.359Z,10.92
2018-10-18T06:41:03.506Z,11.03
2018-10-18T06:42:11.517Z,11.24
2018-10-18T06:43:19.643Z,11.27
2018-10-18T06:44:27.603Z,11.33
2018-10-18T06:45:35.670Z,11.47
2018-10-18T06:46:44.549Z,11.44
2018-10-18T06:47:51.976Z,11.52
2018-10-18T06:48:59.945Z,11.69
2018-10-18T06:50:07.916Z,11.75
2018-10-18T06:51:16.010Z,11.86
2018-10-18T06:52:24.063Z,12.01
2018-10-18T06:53:32.122Z,12.05
2018-10-18T06:54:40.186Z,12.16
2018-10-18T06:55:48.236Z,12.28
2018-10-18T06:56:56.305Z,12.28
2018-10-18T06:58:04.393Z,12.50
2018-10-18T06:59:12.446Z,12.52
2018-10-18T07:00:20.547Z,12.60
2018-10-18T07:01:28.553Z,12.64
2018-10-18T07:02:36.611Z,12.64
2018-10-18T07:03:44.714Z,12.70
2018-10-18T07:04:52.760Z,12.71
2018-10-18T07:06:00.866Z,12.78
2018-10-18T07:07:08.873Z,12.82
2018-10-18T07:08:16.953Z,12.82
2018-10-18T07:09:25.010Z,13.00
2018-10-18T07:10:33.088Z,12.95
2018-10-18T07:11:41.141Z,12.96
2018-10-18T07:12:49.210Z,13.03
2018-10-18T07:13:57.266Z,13.12
2018-10-18T07:15:05.343Z,13.15
2018-10-18T07:16:13.403Z,13.17
2018-10-18T07:17:21.473Z,13.22
2018-10-18T07:18:29.564Z,13.30
2018-10-18T07:19:37.602Z,13.39
2018-10-18T07:20:45.678Z,13.30
2018-10-18T07:21:53.716Z,13.44
2018-10-18T07:23:01.810Z,13.55
2018-10-18T07:24:09.901Z,13.51
2018-10-18T07:25:17.958Z,13.60
2018-10-18T07:26:25.985Z,13.66
2018-10-18T07:27:34.043Z,13.67
2018-10-18T07:28:42.126Z,13.75
2018-10-18T07:29:50.187Z,13.78
2018-10-18T07:30:58.248Z,13.85
2018-10-18T07:32:06.320Z,13.84
2018-10-18T07:33:14.371Z,13.89
2018-10-18T07:34:22.450Z,13.99
2018-10-18T07:35:30.508Z,14.03
2018-10-18T07:36:38.572Z,14.06
2018-10-18T07:37:46.650Z,14.07
2018-10-18T07:38:54.728Z,14.20
2018-10-18T07:40:02.772Z,14.25
2018-10-18T07:41:10.986Z,14.25
2018-10-18T07:42:18.986Z,14.37
2018-10-18T07:43:26.970Z,14.46
2018-10-18T07:44:35.051Z,14.42
2018-10-18T07:45:43.096Z,14.35
2018-10-18T07:46:51.287Z,14.37
2018-10-18T07:47:59.259Z,14.39
2018-10-18T07:49:07.302Z,14.36
2018-10-18T07:50:15.352Z,14.36
2018-10-18T07:51:23.428Z,14.37
2018-10-18T07:52:31.499Z,14.51
2018-10-18T07:53:39.687Z,14.45
2018-10-18T07:54:47.622Z,14.51
2018-10-18T07:55:55.686Z,14.62
2018-10-18T07:57:03.769Z,14.62
2018-10-18T07:58:11.827Z,14.75
2018-10-18T07:59:19.891Z,14.75
2018-10-18T08:00:28.019Z,14.60
2018-10-18T08:01:36.020Z,14.65
2018-10-18T08:02:44.086Z,14.73
2018-10-18T08:03:52.152Z,14.69
2018-10-18T08:05:00.226Z,14.72
2018-10-18T08:06:08.292Z,14.75
2018-10-18T08:07:16.448Z,14.72
2018-10-18T08:08:24.433Z,14.78
2018-10-18T08:09:32.484Z,14.88
2018-10-18T08:10:40.552Z,14.81
2018-10-18T08:11:48.609Z,14.84
2018-10-18T08:12:56.780Z,14.91
2018-10-18T08:14:04.751Z,14.89
2018-10-18T08:15:12.821Z,14.95
2018-10-18T08:16:20.894Z,14.94
2018-10-18T08:17:29.042Z,15.01
2018-10-18T08:18:37.016Z,15.02
2018-10-18T08:19:45.087Z,15.17
2018-10-18T08:20:53.148Z,15.16
2018-10-18T08:22:01.216Z,15.14
2018-10-18T08:23:09.291Z,15.32
2018-10-18T08:24:17.345Z,15.36
2018-10-18T08:25:25.426Z,15.34
2018-10-18T08:26:33.479Z,15.44
2018-10-18T08:27:41.572Z,15.53
2018-10-18T08:28:49.613Z,15.53
2018-10-18T08:29:57.689Z,15.57
2018-10-18T08:31:05.834Z,15.54
2018-10-18T08:32:13.830Z,15.54
2018-10-18T08:33:21.916Z,15.59
2018-10-18T08:34:29.947Z,15.74
2018-10-18T08:35:38.007Z,15.74
2018-10-18T08:36:46.336Z,15.89
2018-10-18T08:37:54.301Z,15.93
2018-10-18T08:39:02.237Z,15.86
2018-10-18T08:40:10.298Z,15.86
2018-10-18T08:41:18.349Z,15.86
2018-10-18T08:42:26.427Z,15.93
2018-10-18T08:43:34.490Z,15.78
2018-10-18T08:44:42.562Z,15.86
2018-10-18T08:45:50.622Z,15.97
2018-10-18T08:46:58.718Z,16.04
2018-10-18T08:48:06.751Z,15.96
2018-10-18T08:49:15.022Z,16.12
2018-10-18T08:50:22.918Z,16.07
2018-10-18T08:51:30.968Z,16.20
2018-10-18T08:52:39.034Z,16.15
2018-10-18T08:53:47.124Z,16.30
2018-10-18T08:54:55.195Z,16.34
2018-10-18T08:56:03.242Z,16.31
2018-10-18T08:57:11.286Z,16.42
2018-10-18T08:58:19.408Z,16.39
2018-10-18T08:59:27.565Z,16.50
2018-10-18T09:00:35.500Z,16.50
2018-10-18T09:01:43.561Z,16.42
2018-10-18T09:02:51.649Z,16.35
2018-10-18T09:03:59.711Z,16.58
2018-10-18T09:05:07.778Z,16.57
2018-10-18T09:06:15.848Z,16.76
2018-10-18T09:07:23.919Z,16.58
2018-10-18T09:08:32.004Z,16.61
2018-10-18T09:09:40.053Z,16.67
2018-10-18T09:10:48.104Z,16.57
2018-10-18T09:11:56.191Z,16.66
2018-10-18T09:13:04.244Z,16.66
2018-10-18T09:14:12.314Z,16.75
2018-10-18T09:15:20.363Z,16.67
2018-10-18T09:16:28.477Z,16.73
2018-10-18T09:17:36.521Z,16.81
2018-10-18T09:18:44.582Z,16.89
2018-10-18T09:19:52.647Z,16.97
2018-10-18T09:21:00.725Z,17.01
2018-10-18T09:22:08.784Z,17.12
2018-10-18T09:23:16.872Z,17.25
2018-10-18T09:24:24.939Z,17.25
2018-10-18T09:25:33.006Z,17.28
2018-10-18T09:26:41.060Z,17.19
2018-10-18T09:27:49.113Z,17.40
2018-10-18T09:28:57.201Z,17.16
2018-10-18T09:30:05.298Z,17.25
2018-10-18T09:31:13.428Z,17.37
2018-10-18T09:32:21.443Z,17.25
2018-10-18T09:33:29.475Z,17.40
2018-10-18T09:34:37.538Z,17.41
2018-10-18T09:35:45.598Z,17.37
2018-10-18T09:36:53.690Z,17.14
2018-10-18T09:38:01.745Z,17.06
2018-10-18T09:39:09.828Z,17.16
2018-10-18T09:40:17.892Z,17.30
2018-10-18T09:41:25.938Z,17.38
2018-10-18T09:42:34.028Z,17.38
2018-10-18T09:43:42.095Z,17.48
2018-10-18T09:44:50.217Z,17.51
2018-10-18T09:45:58.200Z,17.55
2018-10-18T09:47:06.286Z,17.46
2018-10-18T09:48:14.364Z,17.37
2018-10-18T09:49:22.427Z,17.34
2018-10-18T09:50:30.493Z,17.41
2018-10-18T09:51:38.547Z,17.36
2018-10-18T09:52:46.665Z,17.40
2018-10-18T09:53:54.698Z,17.40
2018-10-18T09:55:02.823Z,17.46
2018-10-18T09:56:10.939Z,17.43
2018-10-18T09:57:18.893Z,17.37
2018-10-18T09:58:26.974Z,17.51
2018-10-18T09:59:35.041Z,17.63
2018-10-18T10:00:43.118Z,17.74
2018-10-18T10:01:51.171Z,17.78
2018-10-18T10:02:59.253Z,17.72
2018-10-18T10:04:07.319Z,17.68
2018-10-18T10:05:15.401Z,17.64
2018-10-18T10:06:23.452Z,17.70
2018-10-18T10:07:31.507Z,17.72
2018-10-18T10:08:39.591Z,17.79
2018-10-18T10:09:47.652Z,17.81
2018-10-18T10:10:55.725Z,17.90
2018-10-18T10:12:03.789Z,18.02
2018-10-18T10:13:12.009Z,17.79
2018-10-18T10:14:19.934Z,17.70
2018-10-18T10:15:28.001Z,17.74
2018-10-18T10:16:36.077Z,17.71
2018-10-18T10:17:44.202Z,17.74
2018-10-18T10:18:52.216Z,17.72
2018-10-18T10:20:00.276Z,17.71
2018-10-18T10:21:08.323Z,17.78
2018-10-18T10:22:16.416Z,17.86
2018-10-18T10:23:24.500Z,17.95
2018-10-18T10:24:32.589Z,17.99
2018-10-18T10:25:40.611Z,18.02
2018-10-18T10:26:48.683Z,18.05
2018-10-18T10:27:56.754Z,17.96
2018-10-18T10:29:04.830Z,17.99
2018-10-18T10:30:12.979Z,18.11
2018-10-18T10:31:21.127Z,18.14
2018-10-18T10:32:29.011Z,18.07
2018-10-18T10:33:37.100Z,18.14
2018-10-18T10:34:45.159Z,18.10
2018-10-18T10:35:53.250Z,17.87
2018-10-18T10:37:01.321Z,17.78
2018-10-18T10:38:09.387Z,17.59
2018-10-18T10:39:17.542Z,17.74
2018-10-18T10:40:25.522Z,17.78
2018-10-18T10:41:33.582Z,17.86
2018-10-18T10:42:41.717Z,17.74
2018-10-18T10:43:49.703Z,17.74
2018-10-18T10:44:57.840Z,17.68
2018-10-18T10:46:05.919Z,17.74
2018-10-18T10:47:13.921Z,17.81
2018-10-18T10:48:21.983Z,17.86
2018-10-18T10:49:30.063Z,17.86
2018-10-18T10:50:38.098Z,17.93
2018-10-18T10:51:46.188Z,17.90
2018-10-18T10:52:54.269Z,17.78
2018-10-18T10:54:02.417Z,17.93
2018-10-18T10:55:10.438Z,17.89
2018-10-18T10:56:18.518Z,17.81
2018-10-18T10:57:26.539Z,17.66
2018-10-18T10:58:34.593Z,17.75
2018-10-18T10:59:42.688Z,17.87
2018-10-18T11:00:50.740Z,17.87
2018-10-18T11:01:58.828Z,18.03
2018-10-18T11:03:07.011Z,18.05
2018-10-18T11:04:14.944Z,18.20
2018-10-18T11:05:23.019Z,18.26
2018-10-18T11:06:31.092Z,18.35
2018-10-18T11:07:39.175Z,18.52
2018-10-18T11:08:47.231Z,18.52
2018-10-18T11:09:55.298Z,18.51
2018-10-18T11:11:03.363Z,18.50
2018-10-18T11:12:11.460Z,18.51
2018-10-18T11:13:19.491Z,18.51
2018-10-18T11:14:27.560Z,18.50
2018-10-18T11:15:35.632Z,18.54
2018-10-18T11:16:43.715Z,18.47
2018-10-18T11:17:51.801Z,18.36
2018-10-18T11:18:59.835Z,18.33
2018-10-18T11:20:07.988Z,18.44
2018-10-18T11:21:16.112Z,18.32
2018-10-18T11:22:24.043Z,18.39
2018-10-18T11:23:32.116Z,18.35
2018-10-18T11:24:40.210Z,18.32
2018-10-18T11:25:48.224Z,18.44
2018-10-18T11:26:56.452Z,18.42
2018-10-18T11:28:04.388Z,18.50
2018-10-18T11:29:12.456Z,18.62
2018-10-18T11:30:20.519Z,18.58
2018-10-18T11:31:28.588Z,18.66
2018-10-18T11:32:36.663Z,18.65
2018-10-18T11:33:44.719Z,18.65
2018-10-18T11:34:52.787Z,18.75
2018-10-18T11:36:00.880Z,18.78
2018-10-18T11:37:08.932Z,18.72
2018-10-18T11:38:17.096Z,18.51
2018-10-18T11:39:25.088Z,18.60
2018-10-18T11:40:33.131Z,18.66
2018-10-18T11:41:41.198Z,18.65
2018-10-18T11:42:49.348Z,18.42
2018-10-18T11:43:57.401Z,18.35
2018-10-18T11:45:05.419Z,18.52
2018-10-18T11:46:13.489Z,18.45
2018-10-18T11:47:21.542Z,18.29
2018-10-18T11:48:29.612Z,18.35
2018-10-18T11:49:37.697Z,18.52
2018-10-18T11:50:45.761Z,18.57
2018-10-18T11:51:53.926Z,18.67
2018-10-18T11:53:01.902Z,18.72
2018-10-18T11:54:10.068Z,18.51
2018-10-18T11:55:18.015Z,18.52
2018-10-18T11:56:26.091Z,18.51
2018-10-18T11:57:34.177Z,18.50
2018-10-18T11:58:42.221Z,18.60
2018-10-18T11:59:50.310Z,18.54
2018-10-18T12:00:58.367Z,18.47
2018-10-18T12:02:06.503Z,18.47
2018-10-18T12:03:14.513Z,18.51
2018-10-18T12:04:22.582Z,18.54
2018-10-18T12:05:30.670Z,18.47
2018-10-18T12:06:38.706Z,18.54
2018-10-18T12:07:46.795Z,18.42
2018-10-18T12:08:54.848Z,18.51
2018-10-18T12:10:02.918Z,18.70
2018-10-18T12:11:11.043Z,18.63
2018-10-18T12:12:19.035Z,18.66
2018-10-18T12:13:27.129Z,18.50
2018-10-18T12:14:35.199Z,18.54
2018-10-18T12:15:43.263Z,18.55
2018-10-18T12:16:51.331Z,18.55
2018-10-18T12:17:59.405Z,18.50
2018-10-18T12:19:07.594Z,18.48
2018-10-18T12:20:15.657Z,18.48
2018-10-18T12:21:23.614Z,18.62
2018-10-18T12:22:31.693Z,18.66
2018-10-18T12:23:39.790Z,18.67
2018-10-18T12:24:47.822Z,18.73
2018-10-18T12:25:55.870Z,18.87
2018-10-18T12:27:04.024Z,18.84
2018-10-18T12:28:12.014Z,18.80
2018-10-18T12:29:20.218Z,18.81
2018-10-18T12:30:28.141Z,18.73
2018-10-18T12:31:36.233Z,18.82
2018-10-18T12:32:44.311Z,18.73
2018-10-18T12:33:52.372Z,18.60
2018-10-18T12:35:00.477Z,18.62
2018-10-18T12:36:08.473Z,18.69
2018-10-18T12:37:16.557Z,18.62
2018-10-18T12:38:24.626Z,18.69
2018-10-18T12:39:32.789Z,18.78
2018-10-18T12:40:40.869Z,18.82
2018-10-18T12:41:48.881Z,18.81
2018-10-18T12:42:56.916Z,18.63
2018-10-18T12:44:05.059Z,18.62
2018-10-18T12:45:13.038Z,18.48
2018-10-18T12:46:21.113Z,18.70
2018-10-18T12:47:29.181Z,18.70
2018-10-18T12:48:37.364Z,18.76
2018-10-18T12:49:45.341Z,18.95
2018-10-18T12:50:53.399Z,18.85
2018-10-18T12:52:01.451Z,18.78
2018-10-18T12:53:09.547Z,18.82
2018-10-18T12:54:17.729Z,18.85
2018-10-18T12:55:25.668Z,19.00
2018-10-18T12:56:33.736Z,18.98
2018-10-18T12:57:41.808Z,19.02
2018-10-18T12:58:49.877Z,18.84
2018-10-18T12:59:57.934Z,18.95
2018-10-18T13:01:06.003Z,18.85
2018-10-18T13:02:14.247Z,18.94
2018-10-18T13:03:22.151Z,18.99
2018-10-18T13:04:30.227Z,18.94
2018-10-18T13:05:38.257Z,18.82
2018-10-18T13:06:46.343Z,18.91
2018-10-18T13:07:54.450Z,18.82
2018-10-18T13:09:02.481Z,18.70
2018-10-18T13:10:10.545Z,18.81
2018-10-18T13:11:18.608Z,18.95
2018-10-18T13:12:26.877Z,18.99
2018-10-18T13:13:34.749Z,19.13
2018-10-18T13:14:42.830Z,19.18
2018-10-18T13:15:50.896Z,19.16
2018-10-18T13:16:58.950Z,19.14
2018-10-18T13:18:07.078Z,19.14
2018-10-18T13:19:15.111Z,19.11
2018-10-18T13:20:23.168Z,19.19
2018-10-18T13:21:31.248Z,19.18
2018-10-18T13:22:39.326Z,19.23
2018-10-18T13:23:47.371Z,19.22
2018-10-18T13:24:55.451Z,19.33
2018-10-18T13:26:03.539Z,19.28
2018-10-18T13:27:11.589Z,19.36
2018-10-18T13:28:19.651Z,19.47
2018-10-18T13:29:27.726Z,19.44
2018-10-18T13:30:35.832Z,19.47
2018-10-18T13:31:43.852Z,19.50
2018-10-18T13:32:51.930Z,19.47
2018-10-18T13:34:00.022Z,19.36
2018-10-18T13:35:08.062Z,19.37
2018-10-18T13:36:16.297Z,19.23
2018-10-18T13:37:24.200Z,19.37
2018-10-18T13:38:32.294Z,19.31
2018-10-18T13:39:40.345Z,19.36
2018-10-18T13:40:48.479Z,19.37
2018-10-18T13:41:56.530Z,19.36
2018-10-18T13:43:04.561Z,19.29
2018-10-18T13:44:12.611Z,19.18
2018-10-18T13:45:20.709Z,19.08
2018-10-18T13:46:28.796Z,19.11
2018-10-18T13:47:36.814Z,19.11
2018-10-18T13:48:44.904Z,19.11
2018-10-18T13:49:52.965Z,19.13
2018-10-18T13:51:01.029Z,18.99
2018-10-18T13:52:09.094Z,19.10
2018-10-18T13:53:17.146Z,19.10
2018-10-18T13:54:25.234Z,19.10
2018-10-18T13:55:33.308Z,19.07
2018-10-18T13:56:41.394Z,18.88
2018-10-18T13:57:49.456Z,18.90
2018-10-18T13:58:57.520Z,18.81
2018-10-18T14:00:05.629Z,18.94
2018-10-18T14:01:13.640Z,18.92
2018-10-18T14:02:21.881Z,18.98
2018-10-18T14:03:29.818Z,18.92
2018-10-18T14:04:37.852Z,18.84
2018-10-18T14:05:46.007Z,18.78
2018-10-18T14:06:53.983Z,18.76
2018-10-18T14:08:02.117Z,18.84
2018-10-18T14:09:10.144Z,18.87
2018-10-18T14:10:18.177Z,18.81
2018-10-18T14:11:26.254Z,18.69
2018-10-18T14:12:34.361Z,18.70
2018-10-18T14:13:42.388Z,18.70
2018-10-18T14:14:50.467Z,18.66
2018-10-18T14:15:58.514Z,18.80
2018-10-18T14:17:06.674Z,18.69
2018-10-18T14:18:14.664Z,18.65
2018-10-18T14:19:22.727Z,18.69
2018-10-18T14:20:30.828Z,18.63
2018-10-18T14:21:38.916Z,18.66
2018-10-18T14:22:46.931Z,18.67
2018-10-18T14:23:55.011Z,18.70
2018-10-18T14:25:03.073Z,18.65
2018-10-18T14:26:11.286Z,18.60
2018-10-18T14:27:19.192Z,18.69
2018-10-18T14:28:27.271Z,18.52
2018-10-18T14:29:35.359Z,18.50
2018-10-18T14:30:43.523Z,18.60
2018-10-18T14:31:51.485Z,18.48
2018-10-18T14:32:59.550Z,18.48
2018-10-18T14:34:07.615Z,18.55
2018-10-18T14:35:15.814Z,18.42
2018-10-18T14:36:23.741Z,18.51